Wind from 289

Air temperature 10.0° C
Dewpoint 8.3° C

Last reported at 2014-Apr-18 23:45 UTC.
Time now 2014-Apr-19 00:12 UTC

Location: N 40°56' E 024°24'.
View on Google Maps.

See reports from other nearby stations

Tides Stations Pressure Air Temp Water Temp Dewpoint Dewpoint depression Visibility Wind Speed Wind Dir Waves Ship positions

  
sailing weather and tide predictions

DW5678 Kavala GR weather

date/time (UTC)wind fromknots sea level pressurealtimeterstation pressurevisibilityair tempwater tempwave heightnotes
2014-Apr-18 23:45 289 10.0
2014-Apr-18 23:30 290 0 gusting 2 10.0
2014-Apr-18 23:15 295 0 gusting 2 10.0
2014-Apr-18 23:00 029 10.0
2014-Apr-18 22:45 029 1 gusting 2 10.0
2014-Apr-18 22:30 036 10.0
2014-Apr-18 22:15 036 10.0
2014-Apr-18 22:00 036 10.0
2014-Apr-18 21:45 036 10.6
2014-Apr-18 21:30 036 10.6
2014-Apr-18 21:15 036 10.6
2014-Apr-18 21:00 036 0 gusting 2 10.6
2014-Apr-18 20:45 279 10.6
2014-Apr-18 20:30 273 10.6
2014-Apr-18 20:15 005 0 gusting 2 11.1
2014-Apr-18 20:00 267 11.1
2014-Apr-18 19:45 227 0 gusting 2 11.1
2014-Apr-18 19:30 300 0 gusting 2 11.1
2014-Apr-18 19:15 028 1 gusting 7 11.1
2014-Apr-18 19:00 349 0 gusting 6 10.6
2014-Apr-18 18:45 207 11.1
2014-Apr-18 18:30 246 0 gusting 4 10.6
2014-Apr-18 18:15 318 0 gusting 4 10.6
2014-Apr-18 18:00 258 0 gusting 6 10.0
2014-Apr-18 17:45 022 2 gusting 6 10.6
2014-Apr-18 17:30 327 0 gusting 10 10.6
2014-Apr-18 17:15 146 10.6
2014-Apr-18 17:00 009 10.6
2014-Apr-18 16:30 271 0 gusting 5 10.6
2014-Apr-18 16:15 308 1 gusting 4 10.0
2014-Apr-18 16:00 069 10.0
2014-Apr-18 15:45 224 4 gusting 11 11.1
2014-Apr-18 15:30 216 0 gusting 6 12.2
2014-Apr-18 15:15 229 1 gusting 6 11.7
2014-Apr-18 15:00 358 11.7
2014-Apr-18 14:45 258 11.1
2014-Apr-18 14:30 219 2 gusting 7 11.7
2014-Apr-18 14:15 244 0 gusting 10 11.7
2014-Apr-18 14:00 192 2 gusting 10 11.7
2014-Apr-18 13:45 213 5 gusting 11 12.2
2014-Apr-18 13:30 223 2 gusting 5 12.2
2014-Apr-18 13:15 214 2 gusting 6 11.7
2014-Apr-18 13:00 217 4 gusting 10 11.7
2014-Apr-18 12:45 254 4 gusting 7 12.2
2014-Apr-18 12:30 217 1 gusting 5 12.2
2014-Apr-18 12:15 235 1 gusting 6 12.2
2014-Apr-18 12:00 224 0 gusting 6 11.7
2014-Apr-18 11:45 160 0 gusting 5 11.7
2014-Apr-18 11:30 002 3 gusting 6 10.6
2014-Apr-18 11:15 015 4 gusting 8 10.6
2014-Apr-18 11:00 9.4
2014-Apr-18 10:45 338 1 gusting 2 10.0
2014-Apr-18 10:30 322 10.6
2014-Apr-18 10:15 327 0 gusting 1 10.6
2014-Apr-18 10:00 337 10.6
2014-Apr-18 09:45 009 0 gusting 6 10.6
2014-Apr-18 09:30 051 2 gusting 6 11.1
2014-Apr-18 09:15 048 1 gusting 5 11.1
2014-Apr-18 09:00 057 0 gusting 2 10.6
2014-Apr-18 08:45 10.6
2014-Apr-18 08:30 333 10.6
2014-Apr-18 08:15 333 10.0
2014-Apr-18 08:00 342 1 gusting 2 10.0
2014-Apr-18 07:45 342 0 gusting 2 10.0
2014-Apr-18 07:30 349 10.0
2014-Apr-18 07:15 347 9.4
2014-Apr-18 07:00 275 2 gusting 6 9.4
2014-Apr-18 06:45 261 0 gusting 2 10.0
2014-Apr-18 06:30 322 1 gusting 5 10.0
2014-Apr-18 06:15 317 0 gusting 2 10.0
2014-Apr-18 06:00 291 0 gusting 5 10.0
2014-Apr-18 05:45 009 10.0
2014-Apr-18 05:30 348 0 gusting 6 9.4
2014-Apr-18 05:15 325 0 gusting 4 10.0
2014-Apr-18 05:00 344 10.0
2014-Apr-18 04:45 281 0 gusting 6 10.0
2014-Apr-18 04:30 333 1 gusting 10 9.4
2014-Apr-18 04:15 355 2 gusting 7 10.0
2014-Apr-18 04:00 259 1 gusting 2 11.1
2014-Apr-18 03:45 049 0 gusting 5 11.7
2014-Apr-18 03:30 138 2 gusting 12 11.7
2014-Apr-18 03:15 049 4 gusting 10 11.7
2014-Apr-18 03:00 036 1 gusting 11 11.7
2014-Apr-18 02:45 067 1 gusting 6 11.7
2014-Apr-18 02:30 107 0 gusting 5 11.7
2014-Apr-18 02:15 067 0 gusting 2 11.7
2014-Apr-18 02:00 051 11.1
2014-Apr-18 01:45 045 1 gusting 10 11.1
2014-Apr-18 01:30 342 2 gusting 6 11.1
2014-Apr-18 01:15 029 0 gusting 2 11.1
2014-Apr-18 01:00 350 11.1
2014-Apr-18 00:45 350 0 gusting 1 11.1
2014-Apr-18 00:30 350 11.1
2014-Apr-18 00:15 021 1 gusting 5 11.1
2014-Apr-18 00:00 061 0 gusting 5 11.1
2014-Apr-17 23:45 341 10.6
2014-Apr-17 23:30 342 10.6
2014-Apr-17 23:15 321 11.1
2014-Apr-17 23:00 327 0 gusting 2 11.1
2014-Apr-17 22:45 005 11.1
2014-Apr-17 22:30 339 1 gusting 2 10.6
2014-Apr-17 22:15 341 0 gusting 2 10.6
2014-Apr-17 22:00 321 0 gusting 2 10.6
2014-Apr-17 21:45 032 10.6
2014-Apr-17 21:30 032 0 gusting 2 10.6
2014-Apr-17 21:15 059 11.1
2014-Apr-17 21:00 074 0 gusting 0 11.1
2014-Apr-17 20:45 310 11.1
2014-Apr-17 20:30 149 11.1
2014-Apr-17 20:15 318 10.6
2014-Apr-17 20:00 309 1 gusting 7 10.6
2014-Apr-17 19:45 331 1 gusting 4 11.1
2014-Apr-17 19:30 355 0 gusting 2 11.1
2014-Apr-17 19:15 015 11.7
2014-Apr-17 19:00 015 11.7
2014-Apr-17 18:45 015 11.7
2014-Apr-17 18:30 026 11.7
2014-Apr-17 18:15 026 11.7
2014-Apr-17 18:00 032 0 gusting 4 11.7
2014-Apr-17 17:45 044 0 gusting 5 12.2
2014-Apr-17 17:30 037 1 gusting 8 12.2
2014-Apr-17 17:15 042 1 gusting 8 12.2
2014-Apr-17 17:00 032 2 gusting 7 12.2
2014-Apr-17 16:45 030 2 gusting 6 12.2
2014-Apr-17 16:30 022 2 gusting 7 12.2
2014-Apr-17 16:15 038 3 gusting 7 12.2
2014-Apr-17 16:00 070 4 gusting 7 12.2
2014-Apr-17 15:45 046 2 gusting 7 12.2
2014-Apr-17 15:30 040 2 gusting 6 12.2
2014-Apr-17 15:15 073 12.2
2014-Apr-17 15:00 056 0 gusting 4 12.8
2014-Apr-17 14:45 044 1 gusting 6 12.8
2014-Apr-17 14:30 038 2 gusting 12 12.8
2014-Apr-17 14:15 078 3 gusting 12 12.8
2014-Apr-17 14:00 044 6 gusting 13 12.2
2014-Apr-17 13:45 049 4 gusting 10 12.2
2014-Apr-17 13:30 055 4 gusting 12 12.8
2014-Apr-17 13:15 064 4 gusting 11 12.8
2014-Apr-17 13:00 045 3 gusting 13 12.8
2014-Apr-17 12:45 099 2 gusting 8 12.8
2014-Apr-17 12:30 067 2 gusting 14 12.8
2014-Apr-17 12:15 083 6 gusting 14 12.8
2014-Apr-17 12:00 043 6 gusting 11 12.8
2014-Apr-17 11:45 079 3 gusting 10 12.2
2014-Apr-17 11:30 070 4 gusting 10 12.2
2014-Apr-17 11:15 065 5 gusting 10 12.2
2014-Apr-17 11:00 040 4 gusting 12 12.8
2014-Apr-17 10:45 060 3 gusting 10 12.8
2014-Apr-17 10:30 044 4 gusting 13 12.8
2014-Apr-17 10:15 079 4 gusting 13 12.8
2014-Apr-17 10:00 032 3 gusting 8 12.8
2014-Apr-17 09:45 086 2 gusting 11 12.8
2014-Apr-17 09:30 016 4 gusting 11 12.8
2014-Apr-17 09:15 072 2 gusting 13 12.8
2014-Apr-17 09:00 047 4 gusting 11 12.8
2014-Apr-17 08:45 086 3 gusting 12 12.8
2014-Apr-17 08:30 133 5 gusting 13 12.8
2014-Apr-17 08:15 070 5 gusting 10 12.2
2014-Apr-17 08:00 021 4 gusting 10 12.2
2014-Apr-17 07:45 057 4 gusting 10 12.2
2014-Apr-17 07:30 018 4 gusting 13 12.2
2014-Apr-17 07:15 073 3 gusting 8 12.2
2014-Apr-17 07:00 060 2 gusting 7 11.7
2014-Apr-17 06:45 032 2 gusting 5 11.7
2014-Apr-17 06:30 069 2 gusting 7 11.7
2014-Apr-17 06:15 045 1 gusting 8 11.7
2014-Apr-17 06:00 031 4 gusting 8 11.1
2014-Apr-17 05:45 073 0 gusting 2 11.1
2014-Apr-17 05:30 038 1 gusting 4 11.1
2014-Apr-17 05:15 346 0 gusting 6 11.1
2014-Apr-17 05:00 049 2 gusting 6 11.7
2014-Apr-17 04:45 041 1 gusting 6 11.7
2014-Apr-17 04:30 050 2 gusting 7 11.7
2014-Apr-17 04:15 084 0 gusting 2 11.7
2014-Apr-17 04:00 031 11.7
2014-Apr-17 03:45 168 11.7
2014-Apr-17 03:30 261 11.7
2014-Apr-17 03:15 261 11.7
2014-Apr-17 03:00 038 2 gusting 6 11.7
2014-Apr-17 02:45 030 1 gusting 5 11.7
2014-Apr-17 02:30 078 11.7
2014-Apr-17 02:15 163 11.7
2014-Apr-17 02:00 201 11.7
2014-Apr-17 01:45 283 11.7
2014-Apr-17 01:30 283 0 gusting 1 11.7
2014-Apr-17 01:15 281 0 gusting 4 11.7
2014-Apr-17 01:00 041 11.7
2014-Apr-17 00:45 038 0 gusting 2 11.7
2014-Apr-17 00:30 033 1 gusting 4 11.7
2014-Apr-17 00:15 029 1 gusting 4 11.7
2014-Apr-17 00:00 035 1 gusting 2 12.2